PAVD METAR and TAF weather

Enter ICAO airport designator
Station Type Date Time Source
PAVD METAR 2019/06/18 14:10 UTC NOAA

PAVD 181410Z 00000KT 10SM -RA FEW001 BKN030 OVC080 10/09 A2988 RMK AO2 P0001


Station Type Date Time Source
PAVD Decoded METAR 2019/06/18 14:10 UTC NOAA

Valdez 2, AK, United States (PAVD) 61-08N 146-16W
Jun 18, 2019 - 10:10 AM EDT / 2019.06.18 1410 UTC
Wind: Calm:0
Visibility: 10 mile(s):0
Sky conditions: overcast
Weather: light rain
Precipitation last hour: 0.01 inches
Temperature: 50 F (10 C)
Dew Point: 48 F (9 C)
Relative Humidity: 93%
Pressure (altimeter): 29.88 in. Hg (1011 hPa)
ob: PAVD 181410Z 00000KT 10SM -RA FEW001 BKN030 OVC080 10/09 A2988 RMK AO2 P0001
cycle: 14

Station Type Date Time Source
PAVD TAF 2019/06/18 12:39 UTC NOAA

TAF PAVD 181135Z 1812/1912 26007KT P6SM VCSH OVC035
AMD LTD TO CLD VIS AND WIND

Example: see airport list